createdAt,value
2018-06-19T00:00:40.122Z,71.41
2018-06-19T00:03:10.396Z,71.27
2018-06-19T00:05:41.397Z,71.31
2018-06-19T00:08:11.658Z,71.58
2018-06-19T00:10:42.474Z,71.09
2018-06-19T00:13:12.800Z,70.60
2018-06-19T00:15:43.595Z,70.86
2018-06-19T00:18:27.128Z,71.26
2018-06-19T00:21:00.860Z,71.55
2018-06-19T00:23:31.578Z,71.48
2018-06-19T00:26:02.731Z,71.48
2018-06-19T00:28:34.210Z,71.42
2018-06-19T00:31:11.731Z,71.65
2018-06-19T00:33:42.325Z,71.51
2018-06-19T00:36:13.512Z,71.58
2018-06-19T00:38:44.250Z,71.62
2018-06-19T00:41:15.068Z,71.79
2018-06-19T00:43:45.393Z,71.47
2018-06-19T00:46:17.438Z,71.65
2018-06-19T00:48:48.001Z,71.28
2018-06-19T00:51:18.466Z,71.67
2018-06-19T00:53:48.829Z,71.28
2018-06-19T00:56:29.941Z,71.61
2018-06-19T00:59:00.365Z,71.24
2018-06-19T01:01:31.429Z,71.45
2018-06-19T01:04:02.097Z,71.54
2018-06-19T01:06:32.679Z,71.88
2018-06-19T01:09:03.077Z,71.63
2018-06-19T01:11:34.562Z,71.81
2018-06-19T01:14:05.053Z,72.07
2018-06-19T01:16:35.579Z,71.75
2018-06-19T01:19:06.386Z,71.83
2018-06-19T01:21:37.070Z,71.98
2018-06-19T01:24:07.622Z,72.11
2018-06-19T01:26:38.733Z,71.82
2018-06-19T01:29:09.368Z,71.87
2018-06-19T01:31:40.795Z,71.49
2018-06-19T01:34:11.144Z,71.89
2018-06-19T01:36:42.035Z,71.77
2018-06-19T01:39:12.691Z,71.70
2018-06-19T01:41:43.101Z,71.79
2018-06-19T01:44:13.243Z,71.80
2018-06-19T01:46:44.469Z,71.92
2018-06-19T01:49:15.808Z,71.47
2018-06-19T01:51:46.788Z,71.45
2018-06-19T01:54:17.357Z,71.77
2018-06-19T01:56:47.812Z,71.77
2018-06-19T01:59:18.840Z,71.98
2018-06-19T02:01:49.449Z,71.87
2018-06-19T02:04:19.801Z,71.72
2018-06-19T02:06:49.876Z,71.81
2018-06-19T02:09:20.816Z,72.02
2018-06-19T02:11:51.375Z,71.96
2018-06-19T02:14:21.741Z,71.93
2018-06-19T02:16:52.609Z,71.84
2018-06-19T02:19:23.529Z,71.36
2018-06-19T02:21:54.138Z,71.59
2018-06-19T02:24:24.481Z,71.26
2018-06-19T02:26:54.876Z,71.69
2018-06-19T02:29:25.395Z,71.56
2018-06-19T02:31:56.498Z,71.52
2018-06-19T02:34:27.194Z,71.14
2018-06-19T02:36:58.426Z,70.61
2018-06-19T02:39:29.865Z,70.75
2018-06-19T02:42:00.851Z,70.96
2018-06-19T02:44:32.269Z,71.18
2018-06-19T02:47:02.876Z,71.20
2018-06-19T02:49:34.358Z,71.74
2018-06-19T02:52:05.220Z,71.91
2018-06-19T02:54:35.742Z,72.11
2018-06-19T02:57:06.425Z,71.99
2018-06-19T02:59:37.088Z,72.07
2018-06-19T03:02:07.490Z,72.28
2018-06-19T03:04:38.200Z,72.30
2018-06-19T03:07:08.743Z,72.19
2018-06-19T03:09:39.121Z,72.26
2018-06-19T03:12:09.722Z,72.14
2018-06-19T03:14:40.362Z,72.17
2018-06-19T03:17:11.253Z,71.85
2018-06-19T03:19:42.112Z,72.08
2018-06-19T03:22:12.947Z,72.17
2018-06-19T03:24:43.714Z,72.15
2018-06-19T03:27:15.091Z,72.20
2018-06-19T03:29:45.729Z,72.25
2018-06-19T03:32:16.140Z,72.44
2018-06-19T03:34:46.789Z,72.29
2018-06-19T03:37:17.381Z,72.35
2018-06-19T03:39:47.886Z,71.77
2018-06-19T03:42:18.686Z,72.01
2018-06-19T03:44:49.168Z,72.33
2018-06-19T03:47:20.149Z,72.09
2018-06-19T03:49:50.990Z,73.50
2018-06-19T03:52:21.594Z,72.12
2018-06-19T03:54:51.900Z,72.12
2018-06-19T03:57:22.173Z,72.10
2018-06-19T03:59:53.026Z,72.40
2018-06-19T04:02:23.291Z,72.37
2018-06-19T04:04:54.118Z,72.58
2018-06-19T04:07:24.690Z,72.13
2018-06-19T04:09:55.042Z,72.55
2018-06-19T04:12:25.432Z,72.45
2018-06-19T04:14:56.345Z,72.62
2018-06-19T04:17:28.787Z,72.71
2018-06-19T04:19:59.937Z,72.58
2018-06-19T04:22:30.635Z,72.48
2018-06-19T04:25:01.067Z,72.48
2018-06-19T04:27:31.997Z,72.56
2018-06-19T04:30:03.092Z,71.79
2018-06-19T04:32:33.482Z,72.27
2018-06-19T04:35:04.832Z,72.59
2018-06-19T04:37:35.380Z,72.53
2018-06-19T04:40:06.222Z,72.07
2018-06-19T04:42:36.734Z,73.12
2018-06-19T04:45:08.830Z,72.76
2018-06-19T04:47:38.984Z,72.92
2018-06-19T04:50:09.769Z,72.63
2018-06-19T04:52:40.829Z,72.94
2018-06-19T04:55:11.950Z,72.22
2018-06-19T04:57:42.313Z,71.40
2018-06-19T05:00:12.663Z,72.48
2018-06-19T05:02:43.052Z,71.69
2018-06-19T05:05:13.642Z,72.08
2018-06-19T05:07:44.215Z,72.64
2018-06-19T05:10:14.903Z,71.75
2018-06-19T05:12:45.609Z,71.51
2018-06-19T05:15:16.283Z,69.90
2018-06-19T05:17:47.426Z,69.22
2018-06-19T05:20:18.919Z,68.78
2018-06-19T05:22:49.681Z,68.32
2018-06-19T05:25:20.490Z,67.56
2018-06-19T05:27:51.685Z,66.87
2018-06-19T05:30:22.019Z,66.71
2018-06-19T05:32:52.611Z,66.74
2018-06-19T05:35:22.966Z,66.39
2018-06-19T05:37:53.513Z,66.43
2018-06-19T05:40:24.244Z,64.98
2018-06-19T05:42:54.480Z,65.97
2018-06-19T05:45:24.973Z,65.99
2018-06-19T05:47:55.285Z,66.94
2018-06-19T05:50:25.507Z,66.04
2018-06-19T05:52:55.981Z,66.12
2018-06-19T05:55:26.248Z,66.91
2018-06-19T05:57:56.565Z,66.27
2018-06-19T06:00:26.800Z,66.05
2018-06-19T06:02:57.531Z,65.57
2018-06-19T06:05:27.849Z,66.79
2018-06-19T06:07:58.428Z,67.32
2018-06-19T06:10:28.906Z,67.64
2018-06-19T06:12:59.605Z,66.80
2018-06-19T06:15:30.017Z,64.95
2018-06-19T06:18:00.516Z,64.56
2018-06-19T06:20:30.801Z,64.56
2018-06-19T06:23:01.412Z,63.80
2018-06-19T06:25:31.696Z,64.25
2018-06-19T06:28:02.288Z,61.52
2018-06-19T06:30:32.803Z,62.27
2018-06-19T06:33:03.195Z,62.16
2018-06-19T06:35:33.211Z,63.80
2018-06-19T06:38:03.804Z,62.75
2018-06-19T06:40:34.308Z,63.03
2018-06-19T06:43:04.977Z,60.45
2018-06-19T06:45:35.291Z,60.97
2018-06-19T06:48:05.670Z,62.31
2018-06-19T06:50:36.317Z,62.40
2018-06-19T06:53:06.636Z,61.52
2018-06-19T06:55:37.345Z,61.61
2018-06-19T06:58:07.801Z,61.34
2018-06-19T07:00:38.320Z,60.81
2018-06-19T07:03:08.608Z,60.62
2018-06-19T07:05:39.396Z,62.32
2018-06-19T07:08:09.624Z,62.75
2018-06-19T07:10:39.940Z,62.49
2018-06-19T07:13:11.192Z,61.28
2018-06-19T07:15:41.423Z,61.20
2018-06-19T07:18:11.881Z,60.62
2018-06-19T07:20:42.186Z,61.17
2018-06-19T07:23:12.613Z,61.38
2018-06-19T07:25:42.879Z,60.80
2018-06-19T07:28:13.257Z,61.25
2018-06-19T07:30:43.828Z,62.18
2018-06-19T07:33:14.687Z,61.29
2018-06-19T07:35:45.088Z,61.14
2018-06-19T07:38:15.520Z,60.96
2018-06-19T07:40:46.448Z,61.09
2018-06-19T07:43:16.888Z,59.70
2018-06-19T07:45:47.496Z,58.32
2018-06-19T07:48:17.617Z,58.77
2018-06-19T07:50:47.977Z,57.68
2018-06-19T07:53:18.352Z,58.38
2018-06-19T07:55:48.728Z,58.05
2018-06-19T07:58:19.409Z,57.49
2018-06-19T08:00:50.333Z,56.97
2018-06-19T08:03:20.596Z,57.62
2018-06-19T08:05:50.994Z,57.16
2018-06-19T08:08:21.307Z,58.07
2018-06-19T08:10:52.003Z,57.97
2018-06-19T08:13:22.474Z,57.87
2018-06-19T08:15:53.614Z,58.66
2018-06-19T08:18:24.153Z,57.94
2018-06-19T08:20:55.126Z,57.43
2018-06-19T08:23:25.685Z,57.89
2018-06-19T08:25:56.317Z,58.12
2018-06-19T08:28:26.721Z,58.43
2018-06-19T08:30:57.048Z,57.76
2018-06-19T08:33:27.311Z,56.87
2018-06-19T08:35:57.764Z,57.53
2018-06-19T08:38:28.624Z,57.11
2018-06-19T08:40:59.286Z,56.91
2018-06-19T08:43:29.880Z,56.63
2018-06-19T08:46:00.421Z,56.60
2018-06-19T08:48:30.953Z,55.03
2018-06-19T08:51:01.471Z,54.16
2018-06-19T08:53:32.119Z,54.88
2018-06-19T08:56:02.608Z,54.53
2018-06-19T08:58:33.375Z,53.72
2018-06-19T09:01:03.828Z,53.86
2018-06-19T09:03:34.043Z,52.66
2018-06-19T09:06:05.302Z,53.89
2018-06-19T09:08:36.110Z,53.91
2018-06-19T09:11:07.041Z,53.33
2018-06-19T09:13:37.950Z,53.55
2018-06-19T09:16:08.997Z,53.44
2018-06-19T09:18:39.918Z,53.57
2018-06-19T09:21:10.435Z,53.07
2018-06-19T09:23:41.516Z,53.66
2018-06-19T09:26:11.952Z,54.43
2018-06-19T09:28:42.628Z,55.01
2018-06-19T09:31:13.539Z,54.39
2018-06-19T09:33:44.105Z,54.02
2018-06-19T09:36:14.607Z,53.22
2018-06-19T09:38:44.950Z,52.48
2018-06-19T09:41:15.952Z,51.63
2018-06-19T09:43:46.612Z,52.26
2018-06-19T09:46:17.000Z,51.62
2018-06-19T09:48:47.536Z,51.89
2018-06-19T09:51:18.171Z,52.27
2018-06-19T09:53:48.790Z,50.28
2018-06-19T09:56:19.395Z,51.51
2018-06-19T09:58:49.893Z,52.13
2018-06-19T10:01:20.254Z,52.92
2018-06-19T10:03:50.635Z,52.08
2018-06-19T10:06:21.060Z,50.48
2018-06-19T10:08:51.585Z,49.54
2018-06-19T10:11:22.432Z,49.82
2018-06-19T10:13:52.745Z,50.44
2018-06-19T10:16:23.300Z,50.62
2018-06-19T10:18:53.704Z,51.33
2018-06-19T10:21:24.142Z,51.32
2018-06-19T10:23:54.393Z,51.50
2018-06-19T10:26:24.392Z,48.38
2018-06-19T10:28:55.168Z,49.29
2018-06-19T10:31:25.718Z,49.31
2018-06-19T10:33:56.327Z,50.41
2018-06-19T10:36:26.788Z,49.85
2018-06-19T10:38:57.307Z,50.44
2018-06-19T10:41:27.755Z,50.81
2018-06-19T10:43:57.862Z,50.17
2018-06-19T10:46:28.379Z,50.45
2018-06-19T10:48:58.736Z,50.95
2018-06-19T10:51:28.814Z,48.79
2018-06-19T10:53:58.981Z,49.81
2018-06-19T10:56:29.213Z,49.23
2018-06-19T10:58:59.461Z,47.91
2018-06-19T11:01:30.400Z,48.15
2018-06-19T11:04:00.401Z,48.28
2018-06-19T11:06:30.521Z,49.64
2018-06-19T11:09:00.743Z,48.65
2018-06-19T11:11:31.418Z,48.79
2018-06-19T11:14:01.870Z,48.56
2018-06-19T11:16:32.199Z,47.63
2018-06-19T11:19:02.176Z,48.37
2018-06-19T11:21:33.085Z,48.77
2018-06-19T11:24:03.199Z,48.56
2018-06-19T11:26:33.595Z,49.15
2018-06-19T11:29:03.877Z,48.42
2018-06-19T11:31:34.300Z,47.68
2018-06-19T11:34:04.648Z,48.37
2018-06-19T11:36:35.063Z,48.20
2018-06-19T11:39:08.093Z,48.66
2018-06-19T11:41:38.183Z,48.44
2018-06-19T11:44:08.776Z,47.62
2018-06-19T11:46:38.946Z,49.10
2018-06-19T11:49:09.959Z,48.90
2018-06-19T11:51:40.133Z,47.52
2018-06-19T11:54:10.230Z,50.20
2018-06-19T11:56:40.321Z,49.85
2018-06-19T11:59:11.228Z,50.75
2018-06-19T12:01:41.199Z,50.13
2018-06-19T12:04:11.316Z,49.76
2018-06-19T12:06:41.413Z,50.51
2018-06-19T12:09:12.186Z,50.20
2018-06-19T12:11:42.352Z,50.12
2018-06-19T12:14:12.666Z,49.65
2018-06-19T12:16:42.931Z,50.13
2018-06-19T12:19:12.879Z,49.47
2018-06-19T12:21:42.908Z,49.29
2018-06-19T12:24:13.224Z,48.64
2018-06-19T12:26:43.665Z,47.94
2018-06-19T12:29:13.680Z,48.83
2018-06-19T12:31:43.927Z,48.38
2018-06-19T12:34:14.420Z,46.14
2018-06-19T12:36:44.729Z,46.72
2018-06-19T12:39:14.800Z,45.92
2018-06-19T12:41:46.471Z,45.48
2018-06-19T12:44:16.506Z,45.14
2018-06-19T12:46:46.575Z,44.51
2018-06-19T12:49:25.295Z,45.36
2018-06-19T12:52:06.025Z,45.84
2018-06-19T12:55:44.934Z,45.78
2018-06-19T12:58:15.085Z,45.10
2018-06-19T13:00:45.338Z,46.68
2018-06-19T13:03:26.312Z,46.23
2018-06-19T13:06:08.027Z,46.47
2018-06-19T13:08:38.084Z,46.72
2018-06-19T13:11:08.927Z,46.50
2018-06-19T13:13:49.847Z,45.97
2018-06-19T13:16:30.518Z,45.30
2018-06-19T13:19:11.239Z,45.17
2018-06-19T13:21:41.565Z,44.20
2018-06-19T13:24:12.297Z,45.25
2018-06-19T13:26:42.440Z,44.48
2018-06-19T13:29:50.856Z,44.83
2018-06-19T13:32:21.014Z,44.01
2018-06-19T13:34:51.324Z,44.37
2018-06-19T13:37:21.786Z,45.25
2018-06-19T13:41:02.992Z,46.02
2018-06-19T13:43:44.217Z,44.86
2018-06-19T13:46:14.381Z,42.18
2018-06-19T13:48:44.524Z,43.45
2018-06-19T13:51:14.758Z,44.81
2018-06-19T13:53:45.505Z,45.34
2018-06-19T13:57:35.206Z,45.71
2018-06-19T14:00:07.406Z,43.46
2018-06-19T14:02:37.615Z,43.44
2018-06-19T14:05:08.796Z,44.87
2018-06-19T14:07:49.922Z,43.82
2018-06-19T14:10:30.972Z,42.60
2018-06-19T14:13:02.743Z,43.54
2018-06-19T14:15:37.422Z,42.77
2018-06-19T14:18:08.099Z,42.53
2018-06-19T14:20:38.665Z,43.52
2018-06-19T14:23:08.919Z,43.34
2018-06-19T14:25:39.312Z,44.80
2018-06-19T14:28:09.428Z,44.23
2018-06-19T14:30:40.069Z,44.13
2018-06-19T14:33:10.223Z,43.52
2018-06-19T14:35:40.420Z,44.40
2018-06-19T14:38:10.547Z,44.13
2018-06-19T14:40:40.812Z,43.91
2018-06-19T14:43:10.766Z,43.03
2018-06-19T14:45:40.841Z,43.72
2018-06-19T14:48:10.797Z,44.49
2018-06-19T14:50:40.953Z,44.50
2018-06-19T14:53:10.997Z,44.75
2018-06-19T14:55:41.289Z,44.32
2018-06-19T14:58:11.288Z,43.24
2018-06-19T15:00:41.453Z,43.67
2018-06-19T15:03:11.676Z,44.59
2018-06-19T15:05:41.805Z,43.97
2018-06-19T15:08:11.778Z,43.97
2018-06-19T15:10:42.408Z,44.91
2018-06-19T15:13:12.538Z,44.42
2018-06-19T15:15:42.608Z,44.45
2018-06-19T15:18:12.738Z,45.42
2018-06-19T15:20:43.151Z,45.34
2018-06-19T15:23:13.488Z,44.45
2018-06-19T15:25:44.198Z,45.84
2018-06-19T15:28:14.212Z,45.93
2018-06-19T15:30:44.468Z,45.06
2018-06-19T15:33:14.855Z,45.20
2018-06-19T15:35:44.995Z,46.48
2018-06-19T15:38:15.079Z,46.06
2018-06-19T15:40:46.124Z,47.42
2018-06-19T15:43:16.289Z,46.96
2018-06-19T15:45:46.364Z,47.12
2018-06-19T15:48:16.805Z,47.36
2018-06-19T15:50:46.961Z,47.88
2018-06-19T15:53:17.118Z,47.99
2018-06-19T15:55:47.343Z,47.81
2018-06-19T15:58:17.740Z,48.03
2018-06-19T16:00:47.789Z,48.74
2018-06-19T16:03:17.824Z,47.83
2018-06-19T16:05:47.773Z,48.77
2018-06-19T16:08:18.678Z,49.30
2018-06-19T16:10:49.710Z,48.76
2018-06-19T16:13:19.962Z,47.77
2018-06-19T16:15:51.459Z,49.29
2018-06-19T16:18:23.106Z,47.36
2018-06-19T16:20:54.544Z,48.32
2018-06-19T16:23:25.111Z,47.89
2018-06-19T16:25:55.751Z,47.51
2018-06-19T16:28:26.512Z,48.32
2018-06-19T16:31:18.557Z,47.64
2018-06-19T16:34:00.249Z,46.91
2018-06-19T16:36:37.228Z,48.12
2018-06-19T16:39:18.001Z,47.79
2018-06-19T16:42:01.567Z,48.78
2018-06-19T16:44:39.345Z,48.62
2018-06-19T16:47:33.293Z,48.15
2018-06-19T16:50:13.404Z,48.27
2018-06-19T16:52:53.831Z,47.87
2018-06-19T16:55:31.961Z,47.63
2018-06-19T16:58:08.250Z,48.00
2018-06-19T17:03:31.709Z,48.44
2018-06-19T17:06:10.785Z,49.06
2018-06-19T17:08:45.391Z,50.83
2018-06-19T17:11:18.464Z,48.89
2018-06-19T17:14:07.625Z,50.12
2018-06-19T17:16:44.883Z,51.58
2018-06-19T17:19:19.970Z,50.47
2018-06-19T17:21:53.639Z,52.64
2018-06-19T17:24:26.792Z,49.26
2018-06-19T17:26:58.779Z,49.20
2018-06-19T17:29:29.659Z,49.61
2018-06-19T17:32:03.037Z,49.45
2018-06-19T17:34:33.427Z,49.22
2018-06-19T17:37:04.288Z,48.62
2018-06-19T17:39:37.058Z,49.52
2018-06-19T17:42:10.307Z,49.54
2018-06-19T17:44:42.235Z,49.46
2018-06-19T17:47:15.059Z,48.92
2018-06-19T17:49:46.717Z,49.75
2018-06-19T17:52:18.314Z,49.01
2018-06-19T17:54:50.803Z,49.64
2018-06-19T17:57:25.059Z,49.05
2018-06-19T17:59:57.435Z,49.80
2018-06-19T18:02:30.449Z,49.58
2018-06-19T18:05:00.912Z,50.47
2018-06-19T18:07:31.760Z,50.20
2018-06-19T18:10:03.762Z,48.94
2018-06-19T18:12:36.352Z,51.23
2018-06-19T18:15:07.285Z,49.39
2018-06-19T18:17:39.118Z,50.64
2018-06-19T18:20:09.621Z,49.89
2018-06-19T18:22:43.789Z,49.73
2018-06-19T18:25:15.460Z,48.82
2018-06-19T18:27:46.584Z,48.44
2018-06-19T18:30:18.397Z,49.28
2018-06-19T18:32:51.457Z,48.55
2018-06-19T18:35:22.754Z,48.50
2018-06-19T18:37:58.545Z,49.17
2018-06-19T18:40:29.226Z,48.58
2018-06-19T18:43:02.666Z,48.84
2018-06-19T18:45:34.748Z,49.79
2018-06-19T18:48:05.737Z,49.13
2018-06-19T18:50:38.324Z,49.70
2018-06-19T18:53:08.884Z,48.80
2018-06-19T18:55:40.282Z,48.71
2018-06-19T18:58:15.781Z,49.54
2018-06-19T19:00:47.401Z,49.55
2018-06-19T19:03:18.241Z,52.82
2018-06-19T19:05:50.810Z,51.30
2018-06-19T19:08:25.408Z,53.18
2018-06-19T19:10:59.240Z,52.72
2018-06-19T19:13:37.924Z,51.00
2018-06-19T19:16:15.047Z,51.37
2018-06-19T19:18:52.651Z,52.01
2018-06-19T19:21:25.747Z,52.49
2018-06-19T19:23:56.779Z,54.13
2018-06-19T19:26:33.575Z,62.12
2018-06-19T19:29:09.569Z,59.76
2018-06-19T19:31:41.091Z,61.95
2018-06-19T19:34:11.689Z,63.16
2018-06-19T19:36:49.072Z,57.97
2018-06-19T19:39:24.927Z,61.81
2018-06-19T19:41:58.362Z,61.06
2018-06-19T19:44:30.996Z,63.43
2018-06-19T19:47:07.753Z,61.22
2018-06-19T19:49:40.187Z,59.25
2018-06-19T19:52:11.815Z,61.91
2018-06-19T19:54:46.050Z,60.90
2018-06-19T19:57:22.768Z,63.47
2018-06-19T19:59:58.252Z,64.58
2018-06-19T20:02:31.445Z,62.21
2018-06-19T20:05:06.143Z,61.52
2018-06-19T20:07:40.917Z,62.96
2018-06-19T20:10:14.227Z,61.85
2018-06-19T20:12:47.817Z,63.58
2018-06-19T20:15:21.626Z,61.64
2018-06-19T20:17:55.565Z,64.87
2018-06-19T20:20:35.314Z,65.72
2018-06-19T20:23:10.172Z,64.54
2018-06-19T20:25:44.065Z,65.41
2018-06-19T20:28:20.017Z,61.89
2018-06-19T20:30:55.984Z,63.85
2018-06-19T20:33:29.898Z,65.55
2018-06-19T20:36:07.866Z,65.41
2018-06-19T20:38:40.006Z,66.42
2018-06-19T20:41:12.988Z,65.47
2018-06-19T20:43:46.033Z,65.83
2018-06-19T20:46:20.117Z,64.50
2018-06-19T20:48:50.614Z,63.63
2018-06-19T20:51:22.610Z,61.62
2018-06-19T20:53:54.313Z,61.50
2018-06-19T20:56:25.023Z,61.70
2018-06-19T20:58:57.909Z,62.24
2018-06-19T21:01:30.769Z,63.85
2018-06-19T21:04:01.538Z,63.27
2018-06-19T21:06:32.785Z,60.90
2018-06-19T21:09:04.685Z,62.69
2018-06-19T21:11:36.226Z,65.91
2018-06-19T21:14:11.751Z,64.71
2018-06-19T21:16:44.355Z,61.52
2018-06-19T21:19:17.445Z,61.46
2018-06-19T21:21:48.374Z,61.13
2018-06-19T21:24:21.787Z,62.14
2018-06-19T21:26:53.105Z,60.80
2018-06-19T21:29:25.301Z,61.12
2018-06-19T21:32:00.144Z,61.50
2018-06-19T21:34:33.317Z,60.26
2018-06-19T21:37:04.739Z,61.24
2018-06-19T21:39:38.442Z,61.44
2018-06-19T21:42:09.612Z,65.95
2018-06-19T21:44:40.553Z,65.24
2018-06-19T21:47:14.930Z,62.22
2018-06-19T21:49:47.177Z,64.67
2018-06-19T21:52:21.785Z,65.40
2018-06-19T21:54:54.266Z,67.00
2018-06-19T21:57:25.645Z,66.40
2018-06-19T21:59:58.529Z,66.02
2018-06-19T22:02:35.180Z,63.96
2018-06-19T22:05:07.207Z,66.79
2018-06-19T22:07:38.164Z,66.81
2018-06-19T22:10:08.633Z,67.37
2018-06-19T22:12:42.281Z,66.48
2018-06-19T22:15:14.138Z,66.26
2018-06-19T22:17:52.648Z,65.46
2018-06-19T22:20:25.645Z,64.95
2018-06-19T22:23:08.793Z,62.75
2018-06-19T22:25:40.889Z,62.32
2018-06-19T22:28:13.615Z,62.61
2018-06-19T22:30:47.917Z,66.28
2018-06-19T22:33:28.568Z,67.98
2018-06-19T22:36:00.560Z,66.95
2018-06-19T22:38:31.724Z,66.84
2018-06-19T22:41:04.035Z,66.70
2018-06-19T22:43:37.314Z,64.51
2018-06-19T22:46:09.394Z,64.14
2018-06-19T22:48:41.918Z,65.16
2018-06-19T22:51:12.679Z,63.85
2018-06-19T22:53:45.128Z,63.19
2018-06-19T22:56:17.004Z,62.53
2018-06-19T22:58:48.967Z,62.84
2018-06-19T23:01:25.560Z,62.90
2018-06-19T23:03:58.994Z,62.39
2018-06-19T23:06:31.367Z,67.71
2018-06-19T23:09:02.736Z,67.24
2018-06-19T23:11:35.358Z,67.40
2018-06-19T23:14:09.321Z,67.64
2018-06-19T23:16:45.400Z,67.89
2018-06-19T23:19:20.236Z,66.04
2018-06-19T23:21:59.971Z,67.30
2018-06-19T23:24:32.909Z,66.30
2018-06-19T23:27:06.346Z,67.61
2018-06-19T23:29:37.681Z,67.05
2018-06-19T23:32:09.015Z,67.82
2018-06-19T23:34:42.324Z,66.88
2018-06-19T23:37:14.182Z,62.73
2018-06-19T23:39:45.604Z,66.95
2018-06-19T23:42:19.053Z,65.34
2018-06-19T23:44:50.846Z,67.33
2018-06-19T23:47:23.093Z,67.35
2018-06-19T23:49:54.433Z,66.07
2018-06-19T23:52:27.454Z,62.92
2018-06-19T23:55:00.718Z,62.60
2018-06-19T23:57:33.611Z,67.46
